createdAt,value
2023-02-15T00:00:38.187Z,100155.00
2023-02-15T00:03:25.767Z,100147.00
2023-02-15T00:06:13.262Z,100146.00
2023-02-15T00:09:01.756Z,100142.00
2023-02-15T00:11:52.242Z,100141.00
2023-02-15T00:14:39.817Z,100142.00
2023-02-15T00:17:30.648Z,100140.00
2023-02-15T00:20:19.519Z,100141.00
2023-02-15T00:23:07.044Z,100131.00
2023-02-15T00:26:04.948Z,100144.00
2023-02-15T00:28:53.166Z,100141.00
2023-02-15T00:31:40.978Z,100143.00
2023-02-15T00:34:30.428Z,100144.00
2023-02-15T00:37:18.013Z,100133.00
2023-02-15T00:40:07.007Z,100130.00
2023-02-15T00:42:54.552Z,100127.00
2023-02-15T00:45:42.174Z,100127.00
2023-02-15T00:48:30.822Z,100110.00
2023-02-15T00:51:19.044Z,100120.00
2023-02-15T00:54:08.294Z,100125.00
2023-02-15T00:56:55.786Z,100114.00
2023-02-15T00:59:43.290Z,100110.00
2023-02-15T01:02:30.832Z,100103.00
2023-02-15T01:05:18.551Z,100097.00
2023-02-15T01:08:06.999Z,100096.00
2023-02-15T01:10:55.076Z,100093.00
2023-02-15T01:13:43.006Z,100088.00
2023-02-15T01:16:30.765Z,100082.00
2023-02-15T01:19:18.430Z,100084.00
2023-02-15T01:22:06.018Z,100078.00
2023-02-15T01:24:53.610Z,100076.00
2023-02-15T01:27:41.106Z,100068.00
2023-02-15T01:30:28.689Z,100078.00
2023-02-15T01:33:19.165Z,100074.00
2023-02-15T01:36:07.481Z,100065.00
2023-02-15T01:38:55.025Z,100058.00
2023-02-15T01:41:42.594Z,100053.00
2023-02-15T01:44:57.444Z,100047.00
2023-02-15T01:48:14.654Z,100045.00
2023-02-15T01:51:04.127Z,100039.00
2023-02-15T01:54:02.842Z,100040.00
2023-02-15T01:56:50.461Z,100034.00
2023-02-15T01:59:43.691Z,100025.00
2023-02-15T02:02:32.535Z,100028.00
2023-02-15T02:05:20.181Z,100026.00
2023-02-15T02:08:10.857Z,100018.00
2023-02-15T02:10:58.513Z,100021.00
2023-02-15T02:13:46.766Z,100024.00
2023-02-15T02:16:46.720Z,100019.00
2023-02-15T02:20:04.517Z,100006.00
2023-02-15T02:23:19.255Z,100017.00
2023-02-15T02:26:28.200Z,100008.00
2023-02-15T02:29:30.441Z,100007.00
2023-02-15T02:33:18.390Z,100007.00
2023-02-15T02:36:43.598Z,99997.00
2023-02-15T02:40:09.820Z,99991.00
2023-02-15T02:43:34.315Z,99988.00
2023-02-15T02:46:39.308Z,99983.00
2023-02-15T02:49:40.402Z,99992.00
2023-02-15T02:52:49.611Z,99989.00
2023-02-15T02:55:51.765Z,99979.00
2023-02-15T02:59:09.286Z,99986.00
2023-02-15T03:02:16.295Z,99987.00
2023-02-15T03:05:10.241Z,99987.00
2023-02-15T03:08:02.391Z,99980.00
2023-02-15T03:10:58.029Z,99981.00
2023-02-15T03:13:49.657Z,99972.00
2023-02-15T03:16:41.520Z,99980.00
2023-02-15T03:19:36.440Z,99974.00
2023-02-15T03:22:37.242Z,99969.00
2023-02-15T03:25:33.968Z,99974.00
2023-02-15T03:28:36.526Z,99971.00
2023-02-15T03:31:30.153Z,99969.00
2023-02-15T03:34:19.561Z,99974.00
2023-02-15T03:37:42.122Z,99967.00
2023-02-15T03:40:58.170Z,99973.00
2023-02-15T03:44:00.820Z,99971.00
2023-02-15T03:46:59.065Z,99966.00
2023-02-15T03:50:25.840Z,99963.00
2023-02-15T03:53:19.151Z,99960.00
2023-02-15T03:56:07.632Z,99958.00
2023-02-15T03:59:14.085Z,99966.00
2023-02-15T04:02:27.459Z,99968.00
2023-02-15T04:05:15.145Z,99967.00
2023-02-15T04:08:03.747Z,99975.00
2023-02-15T04:10:54.086Z,99967.00
2023-02-15T04:13:42.592Z,99968.00
2023-02-15T04:16:31.291Z,99967.00
2023-02-15T04:19:37.439Z,99968.00
2023-02-15T04:22:43.441Z,99960.00
2023-02-15T04:25:31.141Z,99962.00
2023-02-15T04:28:18.713Z,99963.00
2023-02-15T04:31:06.346Z,99957.00
2023-02-15T04:33:53.835Z,99959.00
2023-02-15T04:36:41.934Z,99956.00
2023-02-15T04:39:29.511Z,99957.00
2023-02-15T04:42:17.283Z,99952.00
2023-02-15T04:45:05.956Z,99953.00
2023-02-15T04:47:53.605Z,99954.00
2023-02-15T04:50:41.187Z,99943.00
2023-02-15T04:53:28.689Z,99949.00
2023-02-15T04:56:16.803Z,99954.00
2023-02-15T04:59:04.823Z,99956.00
2023-02-15T05:01:52.384Z,99954.00
2023-02-15T05:04:39.915Z,99951.00
2023-02-15T05:07:27.483Z,99950.00
2023-02-15T05:10:15.183Z,99944.00
2023-02-15T05:13:02.684Z,99938.00
2023-02-15T05:15:52.269Z,99944.00
2023-02-15T05:18:39.784Z,99946.00
2023-02-15T05:21:27.890Z,99941.00
2023-02-15T05:24:33.957Z,99946.00
2023-02-15T05:27:40.040Z,99945.00
2023-02-15T05:30:27.890Z,99940.00
2023-02-15T05:33:16.098Z,99949.00
2023-02-15T05:36:06.098Z,99954.00
2023-02-15T05:38:53.964Z,99944.00
2023-02-15T05:41:41.510Z,99964.00
2023-02-15T05:44:29.050Z,99954.00
2023-02-15T05:47:16.610Z,99964.00
2023-02-15T05:50:04.410Z,99956.00
2023-02-15T05:52:52.718Z,99956.00
2023-02-15T05:55:41.927Z,99957.00
2023-02-15T05:58:34.565Z,99959.00
2023-02-15T06:01:24.818Z,99968.00
2023-02-15T06:04:13.395Z,99970.00
2023-02-15T06:07:00.968Z,99966.00
2023-02-15T06:09:48.507Z,99972.00
2023-02-15T06:12:36.138Z,99979.00
2023-02-15T06:15:23.697Z,99975.00
2023-02-15T06:18:11.238Z,99977.00
2023-02-15T06:20:58.790Z,99983.00
2023-02-15T06:23:46.442Z,99983.00
2023-02-15T06:26:34.021Z,99984.00
2023-02-15T06:29:21.517Z,99982.00
2023-02-15T06:32:09.055Z,99992.00
2023-02-15T06:34:56.580Z,99988.00
2023-02-15T06:37:47.991Z,99997.00
2023-02-15T06:40:35.523Z,99995.00
2023-02-15T06:43:23.097Z,99999.00
2023-02-15T06:46:10.662Z,100001.00
2023-02-15T06:48:58.290Z,99995.00
2023-02-15T06:51:45.818Z,100001.00
2023-02-15T06:54:33.376Z,100005.00
2023-02-15T06:57:20.850Z,100008.00
2023-02-15T07:00:09.560Z,100003.00
2023-02-15T07:02:59.539Z,100016.00
2023-02-15T07:05:48.677Z,100017.00
2023-02-15T07:08:37.682Z,100025.00
2023-02-15T07:11:43.888Z,100027.00
2023-02-15T07:14:31.390Z,100023.00
2023-02-15T07:17:36.048Z,100019.00
2023-02-15T07:20:25.283Z,100026.00
2023-02-15T07:23:12.810Z,100024.00
2023-02-15T07:26:01.691Z,100018.00
2023-02-15T07:28:49.594Z,100015.00
2023-02-15T07:31:37.237Z,100016.00
2023-02-15T07:34:24.801Z,100023.00
2023-02-15T07:37:12.410Z,100017.00
2023-02-15T07:39:59.995Z,100024.00
2023-02-15T07:42:47.497Z,100020.00
2023-02-15T07:45:35.209Z,100024.00
2023-02-15T07:48:24.985Z,100015.00
2023-02-15T07:51:15.583Z,100012.00
2023-02-15T07:54:03.191Z,100014.00
2023-02-15T07:56:50.789Z,100011.00
2023-02-15T07:59:38.275Z,100018.00
2023-02-15T08:02:25.899Z,100014.00
2023-02-15T08:05:13.422Z,100012.00
2023-02-15T08:08:00.945Z,100019.00
2023-02-15T08:11:06.999Z,100027.00
2023-02-15T08:13:56.048Z,100018.00
2023-02-15T08:16:50.524Z,100028.00
2023-02-15T08:19:38.425Z,100022.00
2023-02-15T08:22:27.659Z,100024.00
2023-02-15T08:25:15.309Z,100022.00
2023-02-15T08:28:02.824Z,100025.00
2023-02-15T08:30:50.408Z,100021.00
2023-02-15T08:33:41.711Z,100027.00
2023-02-15T08:36:33.100Z,100022.00
2023-02-15T08:39:20.931Z,100013.00
2023-02-15T08:42:08.452Z,100021.00
2023-02-15T08:44:55.954Z,100020.00
2023-02-15T08:47:43.566Z,100031.00
2023-02-15T08:50:31.144Z,100016.00
2023-02-15T08:53:22.772Z,100019.00
2023-02-15T08:56:11.509Z,100025.00
2023-02-15T08:58:59.465Z,100021.00
2023-02-15T09:01:49.317Z,100022.00
2023-02-15T09:04:37.093Z,100017.00
2023-02-15T09:07:24.586Z,100025.00
2023-02-15T09:10:12.737Z,100020.00
2023-02-15T09:13:00.299Z,100020.00
2023-02-15T09:15:48.290Z,100018.00
2023-02-15T09:18:40.278Z,100021.00
2023-02-15T09:21:29.304Z,100019.00
2023-02-15T09:24:18.210Z,100024.00
2023-02-15T09:27:05.753Z,100019.00
2023-02-15T09:29:53.249Z,100017.00
2023-02-15T09:32:40.921Z,100016.00
2023-02-15T09:35:28.433Z,100014.00
2023-02-15T09:38:16.028Z,100014.00
2023-02-15T09:41:24.877Z,100022.00
2023-02-15T09:45:04.583Z,100012.00
2023-02-15T09:48:20.836Z,100017.00
2023-02-15T09:51:23.734Z,100015.00
2023-02-15T09:54:21.487Z,100014.00
2023-02-15T09:57:32.239Z,100015.00
2023-02-15T10:00:52.794Z,100016.00
2023-02-15T10:04:01.930Z,100007.00
2023-02-15T10:07:24.604Z,100017.00
2023-02-15T10:10:58.835Z,100014.00
2023-02-15T10:14:39.281Z,100007.00
2023-02-15T10:17:54.475Z,100007.00
2023-02-15T10:21:31.666Z,100006.00
2023-02-15T10:24:40.646Z,100009.00
2023-02-15T10:27:36.562Z,100009.00
2023-02-15T10:30:50.271Z,99997.00
2023-02-15T10:33:44.961Z,99996.00
2023-02-15T10:37:18.405Z,99994.00
2023-02-15T10:40:22.563Z,99986.00
2023-02-15T10:43:31.559Z,99983.00
2023-02-15T10:46:47.930Z,99985.00
2023-02-15T10:49:59.388Z,99974.00
2023-02-15T10:53:15.226Z,99978.00
2023-02-15T10:56:39.700Z,99960.00
2023-02-15T10:59:46.433Z,99965.00
2023-02-15T11:03:18.879Z,99962.00
2023-02-15T11:06:21.529Z,99963.00
2023-02-15T11:09:19.280Z,99962.00
2023-02-15T11:12:15.629Z,99955.00
2023-02-15T11:15:31.634Z,99952.00
2023-02-15T11:18:40.016Z,99943.00
2023-02-15T11:21:41.300Z,99933.00
2023-02-15T11:24:34.068Z,99934.00
2023-02-15T11:27:29.405Z,99931.00
2023-02-15T11:30:27.225Z,99925.00
2023-02-15T11:33:36.783Z,99929.00
2023-02-15T11:36:40.241Z,99913.00
2023-02-15T11:39:30.258Z,99920.00
2023-02-15T11:42:25.872Z,99925.00
2023-02-15T11:45:35.653Z,99924.00
2023-02-15T11:48:23.322Z,99923.00
2023-02-15T11:51:18.057Z,99912.00
2023-02-15T11:54:05.702Z,99918.00
2023-02-15T11:56:53.401Z,99909.00
2023-02-15T11:59:51.017Z,99907.00
2023-02-15T12:02:45.188Z,99913.00
2023-02-15T12:05:36.345Z,99912.00
2023-02-15T12:08:25.281Z,99902.00
2023-02-15T12:11:22.020Z,99900.00
2023-02-15T12:14:12.898Z,99903.00
2023-02-15T12:17:01.276Z,99900.00
2023-02-15T12:19:51.749Z,99890.00
2023-02-15T12:22:40.441Z,99891.00
2023-02-15T12:25:36.707Z,99886.00
2023-02-15T12:28:38.957Z,99885.00
2023-02-15T12:31:43.285Z,99880.00
2023-02-15T12:34:43.856Z,99877.00
2023-02-15T12:37:35.854Z,99873.00
2023-02-15T12:40:31.270Z,99872.00
2023-02-15T12:43:38.800Z,99873.00
2023-02-15T12:46:28.314Z,99871.00
2023-02-15T12:49:21.389Z,99859.00
2023-02-15T12:52:24.273Z,99859.00
2023-02-15T12:55:30.713Z,99862.00
2023-02-15T12:58:26.678Z,99851.00
2023-02-15T13:01:18.873Z,99856.00
2023-02-15T13:04:27.849Z,99847.00
2023-02-15T13:07:16.044Z,99839.00
2023-02-15T13:10:04.101Z,99835.00
2023-02-15T13:12:55.288Z,99836.00
2023-02-15T13:15:52.045Z,99834.00
2023-02-15T13:18:47.675Z,99834.00
2023-02-15T13:21:42.947Z,99830.00
2023-02-15T13:24:55.000Z,99830.00
2023-02-15T13:27:45.871Z,99832.00
2023-02-15T13:30:39.356Z,99819.00
2023-02-15T13:33:36.014Z,99825.00
2023-02-15T13:36:42.549Z,99809.00
2023-02-15T13:40:03.681Z,99818.00
2023-02-15T13:42:58.296Z,99806.00
2023-02-15T13:46:22.913Z,99817.00
2023-02-15T13:50:17.166Z,99812.00
2023-02-15T13:53:59.696Z,99817.00
2023-02-15T13:57:17.589Z,99805.00
2023-02-15T14:00:25.306Z,99801.00
2023-02-15T14:03:49.484Z,99791.00
2023-02-15T14:07:03.830Z,99786.00
2023-02-15T14:10:40.893Z,99790.00
2023-02-15T14:13:53.587Z,99783.00
2023-02-15T14:17:07.520Z,99791.00
2023-02-15T14:20:39.241Z,99794.00
2023-02-15T14:23:31.191Z,99793.00
2023-02-15T14:27:06.314Z,99789.00
2023-02-15T14:29:57.411Z,99793.00
2023-02-15T14:32:53.863Z,99790.00
2023-02-15T14:35:43.721Z,99789.00
2023-02-15T14:39:48.375Z,99783.00
2023-02-15T14:43:17.099Z,99781.00
2023-02-15T14:46:31.050Z,99784.00
2023-02-15T14:49:27.294Z,99786.00
2023-02-15T14:52:15.249Z,99786.00
2023-02-15T14:55:02.900Z,99775.00
2023-02-15T14:58:00.330Z,99786.00
2023-02-15T15:00:48.039Z,99781.00
2023-02-15T15:03:37.527Z,99780.00
2023-02-15T15:06:31.586Z,99785.00
2023-02-15T15:09:29.268Z,99779.00
2023-02-15T15:12:22.912Z,99775.00
2023-02-15T15:15:34.634Z,99778.00
2023-02-15T15:18:48.175Z,99781.00
2023-02-15T15:21:47.886Z,99781.00
2023-02-15T15:24:38.368Z,99775.00
2023-02-15T15:27:44.330Z,99776.00
2023-02-15T15:30:31.848Z,99777.00
2023-02-15T15:33:48.200Z,99766.00
2023-02-15T15:37:19.797Z,99770.00
2023-02-15T15:41:14.256Z,99771.00
2023-02-15T15:44:27.325Z,99760.00
2023-02-15T15:47:41.027Z,99764.00
2023-02-15T15:50:28.716Z,99761.00
2023-02-15T15:53:26.824Z,99764.00
2023-02-15T15:56:22.490Z,99758.00
2023-02-15T15:59:21.451Z,99767.00
2023-02-15T16:02:18.097Z,99771.00
2023-02-15T16:05:10.760Z,99762.00
2023-02-15T16:07:58.247Z,99767.00
2023-02-15T16:10:46.374Z,99754.00
2023-02-15T16:13:35.096Z,99773.00
2023-02-15T16:16:32.072Z,99767.00
2023-02-15T16:19:31.764Z,99763.00
2023-02-15T16:22:28.772Z,99754.00
2023-02-15T16:25:25.077Z,99760.00
2023-02-15T16:28:14.397Z,99767.00
2023-02-15T16:31:17.385Z,99761.00
2023-02-15T16:34:18.541Z,99764.00
2023-02-15T16:37:18.543Z,99767.00
2023-02-15T16:40:07.296Z,99764.00
2023-02-15T16:43:04.084Z,99771.00
2023-02-15T16:45:56.857Z,99774.00
2023-02-15T16:48:52.575Z,99777.00
2023-02-15T16:51:46.061Z,99778.00
2023-02-15T16:54:36.469Z,99783.00
2023-02-15T16:57:32.014Z,99773.00
2023-02-15T17:00:35.954Z,99780.00
2023-02-15T17:03:26.669Z,99780.00
2023-02-15T17:06:27.822Z,99781.00
2023-02-15T17:09:23.636Z,99785.00
2023-02-15T17:12:12.027Z,99783.00
2023-02-15T17:14:59.612Z,99785.00
2023-02-15T17:17:48.057Z,99773.00
2023-02-15T17:20:39.480Z,99783.00
2023-02-15T17:23:36.348Z,99778.00
2023-02-15T17:26:38.090Z,99784.00
2023-02-15T17:29:38.135Z,99781.00
2023-02-15T17:32:30.747Z,99788.00
2023-02-15T17:35:26.336Z,99783.00
2023-02-15T17:38:21.891Z,99792.00
2023-02-15T17:41:09.967Z,99793.00
2023-02-15T17:43:58.300Z,99795.00
2023-02-15T17:46:45.975Z,99787.00
2023-02-15T17:49:35.151Z,99790.00
2023-02-15T17:52:22.768Z,99796.00
2023-02-15T17:55:37.577Z,99789.00
2023-02-15T17:58:25.498Z,99791.00
2023-02-15T18:01:39.183Z,99788.00
2023-02-15T18:04:45.189Z,99784.00
2023-02-15T18:07:51.461Z,99792.00
2023-02-15T18:10:57.768Z,99789.00
2023-02-15T18:13:45.590Z,99791.00
2023-02-15T18:16:43.545Z,99797.00
2023-02-15T18:19:32.474Z,99806.00
2023-02-15T18:22:20.733Z,99809.00
2023-02-15T18:25:16.896Z,99809.00
2023-02-15T18:28:05.282Z,99807.00
2023-02-15T18:30:52.873Z,99798.00
2023-02-15T18:33:54.529Z,99807.00
2023-02-15T18:36:45.917Z,99807.00
2023-02-15T18:39:41.058Z,99804.00
2023-02-15T18:42:32.812Z,99806.00
2023-02-15T18:45:28.958Z,99803.00
2023-02-15T18:48:16.465Z,99808.00
2023-02-15T18:51:04.740Z,99807.00
2023-02-15T18:53:53.853Z,99807.00
2023-02-15T18:56:41.484Z,99806.00
2023-02-15T18:59:31.286Z,99806.00
2023-02-15T19:02:20.007Z,99803.00
2023-02-15T19:05:07.771Z,99807.00
2023-02-15T19:07:57.429Z,99802.00
2023-02-15T19:10:46.298Z,99808.00
2023-02-15T19:13:35.890Z,99800.00
2023-02-15T19:16:31.919Z,99798.00
2023-02-15T19:19:20.373Z,99792.00
2023-02-15T19:22:40.198Z,99791.00
2023-02-15T19:25:32.482Z,99790.00
2023-02-15T19:28:33.578Z,99792.00
2023-02-15T19:31:21.361Z,99799.00
2023-02-15T19:34:18.232Z,99792.00
2023-02-15T19:37:08.690Z,99790.00
2023-02-15T19:39:56.766Z,99791.00
2023-02-15T19:42:44.334Z,99796.00
2023-02-15T19:45:33.072Z,99800.00
2023-02-15T19:48:20.589Z,99797.00
2023-02-15T19:51:09.449Z,99787.00
2023-02-15T19:53:57.883Z,99791.00
2023-02-15T19:56:45.441Z,99795.00
2023-02-15T19:59:35.114Z,99789.00
2023-02-15T20:02:22.610Z,99789.00
2023-02-15T20:05:10.198Z,99794.00
2023-02-15T20:07:58.751Z,99798.00
2023-02-15T20:10:46.626Z,99797.00
2023-02-15T20:13:34.135Z,99794.00
2023-02-15T20:16:21.659Z,99796.00
2023-02-15T20:19:09.452Z,99801.00
2023-02-15T20:21:58.747Z,99792.00
2023-02-15T20:24:46.395Z,99792.00
2023-02-15T20:27:35.269Z,99794.00
2023-02-15T20:30:27.541Z,99798.00
2023-02-15T20:33:16.721Z,99790.00
2023-02-15T20:36:04.993Z,99796.00
2023-02-15T20:38:52.776Z,99797.00
2023-02-15T20:41:46.071Z,99792.00
2023-02-15T20:44:35.337Z,99790.00
2023-02-15T20:47:22.971Z,99794.00
2023-02-15T20:50:11.118Z,99795.00
2023-02-15T20:53:02.899Z,99798.00
2023-02-15T20:55:50.469Z,99795.00
2023-02-15T20:58:38.957Z,99797.00
2023-02-15T21:01:26.618Z,99796.00
2023-02-15T21:04:22.362Z,99804.00
2023-02-15T21:07:20.582Z,99806.00
2023-02-15T21:10:10.398Z,99812.00
2023-02-15T21:13:01.319Z,99808.00
2023-02-15T21:15:50.896Z,99805.00
2023-02-15T21:18:40.668Z,99809.00
2023-02-15T21:21:28.665Z,99809.00
2023-02-15T21:24:22.856Z,99807.00
2023-02-15T21:27:13.390Z,99799.00
2023-02-15T21:30:01.185Z,99804.00
2023-02-15T21:32:48.940Z,99802.00
2023-02-15T21:35:37.810Z,99806.00
2023-02-15T21:38:31.016Z,99800.00
2023-02-15T21:41:40.693Z,99808.00
2023-02-15T21:44:46.847Z,99803.00
2023-02-15T21:47:52.492Z,99811.00
2023-02-15T21:51:19.714Z,99802.00
2023-02-15T21:54:12.992Z,99804.00
2023-02-15T21:57:01.135Z,99803.00
2023-02-15T21:59:48.666Z,99808.00
2023-02-15T22:02:37.095Z,99802.00
2023-02-15T22:05:32.599Z,99806.00
2023-02-15T22:08:20.654Z,99803.00
2023-02-15T22:11:24.423Z,99811.00
2023-02-15T22:14:42.222Z,99804.00
2023-02-15T22:17:29.904Z,99808.00
2023-02-15T22:20:24.883Z,99797.00
2023-02-15T22:23:12.902Z,99795.00
2023-02-15T22:26:11.787Z,99800.00
2023-02-15T22:28:59.433Z,99796.00
2023-02-15T22:31:47.705Z,99797.00
2023-02-15T22:34:35.678Z,99812.00
2023-02-15T22:37:23.217Z,99810.00
2023-02-15T22:40:16.179Z,99803.00
2023-02-15T22:43:06.587Z,99802.00
2023-02-15T22:46:01.086Z,99808.00
2023-02-15T22:48:49.559Z,99813.00
2023-02-15T22:51:37.121Z,99812.00
2023-02-15T22:54:24.635Z,99811.00
2023-02-15T22:57:45.137Z,99804.00
2023-02-15T23:00:40.414Z,99806.00
2023-02-15T23:03:31.435Z,99811.00
2023-02-15T23:06:19.016Z,99810.00
2023-02-15T23:09:06.548Z,99807.00
2023-02-15T23:11:54.848Z,99802.00
2023-02-15T23:14:44.903Z,99801.00
2023-02-15T23:17:32.400Z,99791.00
2023-02-15T23:20:20.030Z,99794.00
2023-02-15T23:23:14.978Z,99792.00
2023-02-15T23:26:05.401Z,99790.00
2023-02-15T23:28:55.467Z,99792.00
2023-02-15T23:31:47.249Z,99791.00
2023-02-15T23:34:34.808Z,99797.00
2023-02-15T23:37:22.371Z,99798.00
2023-02-15T23:40:40.601Z,99795.00
2023-02-15T23:43:28.209Z,99794.00
2023-02-15T23:46:29.179Z,99785.00
2023-02-15T23:49:20.166Z,99795.00
2023-02-15T23:52:11.681Z,99790.00
2023-02-15T23:54:59.196Z,99801.00
2023-02-15T23:57:48.080Z,99794.00
